CDG3 weather

Dungannon
Ontario, Canada

Public forecast

Using degrees Celsius for public forecast. Weather courtesy of forecast.io.

Closest aviation weather report (METAR) to Dungannon

Closest report is London Airport, 52.0 nm (96.3 km) SSE. Retrieved 2019/10/18 15:00 UTC (51 minutes ago):

CYXU 181500Z 32010G17KT 300V360 15SM FEW015 BKN028 09/03 A3005 RMK SF1SC5 SLP183

Closest aviation forecast (TAF) to Dungannon

Closest forecast is London Airport, 52.0 nm (96.3 km) SSE. Retrieved 2019/10/18 12:42 UTC (3 hours ago):

TAF CYXU 181138Z 1812/1912 35007KT P6SM BKN040 FM181800 31006KT P6SM SCT040 TEMPO 1818/1820 BKN040 FM190200 VRB03KT P6SM SKC PROB30 1908/1912 1SM BR RMK NXT FCST BY 181800Z